Time;durP1;ratioP1;P1;durP2;ratioP2;P2;SDS_P1;SDS_P2;PMS_P1;PMS_P2;Temp;Humidity;BMP_temperature;BMP_pressure;BME280_temperature;BME280_humidity;BME280_pressure;Samples;Min_cycle;Max_cycle;Signal;HPM_P1;HPM_P2
2021/07/31 00:00:20;;;;;;;9.80;6.10;;;17.90;99.90;;;;;;5071559;28;20451;-59
2021/07/31 00:02:52;;;;;;;11.97;6.60;;;17.90;99.90;;;;;;5069952;28;20988;-59
2021/07/31 00:05:19;;;;;;;9.20;5.70;;;18.00;99.90;;;;;;5072283;28;20523;-59
2021/07/31 00:07:47;;;;;;;8.00;6.23;;;18.00;99.90;;;;;;5067829;28;20455;-60
2021/07/31 00:10:14;;;;;;;8.83;5.43;;;18.00;99.90;;;;;;5064818;28;20463;-61
2021/07/31 00:12:41;;;;;;;7.63;5.90;;;18.00;99.90;;;;;;5071369;28;20459;-60
2021/07/31 00:15:09;;;;;;;6.70;5.77;;;18.10;99.90;;;;;;5071872;28;20868;-60
2021/07/31 00:17:36;;;;;;;6.10;5.50;;;18.10;99.90;;;;;;5070693;28;20446;-60
2021/07/31 00:20:05;;;;;;;6.83;6.00;;;18.20;99.90;;;;;;5071123;28;21001;-60
2021/07/31 00:22:32;;;;;;;9.23;5.83;;;18.20;99.90;;;;;;5070641;28;21013;-60
2021/07/31 00:24:59;;;;;;;6.77;5.50;;;18.10;99.90;;;;;;5052121;28;20525;-60
2021/07/31 00:27:26;;;;;;;6.77;5.63;;;18.10;99.90;;;;;;5056093;28;20451;-60
2021/07/31 00:29:53;;;;;;;7.20;5.50;;;18.20;99.90;;;;;;5072131;28;20506;-59
2021/07/31 00:32:20;;;;;;;7.37;5.33;;;18.20;99.90;;;;;;5070941;28;20459;-60
2021/07/31 00:34:47;;;;;;;7.47;5.50;;;18.10;99.90;;;;;;5072328;28;20451;-60
2021/07/31 00:37:15;;;;;;;6.90;5.63;;;18.20;99.90;;;;;;5063720;28;20989;-59
2021/07/31 00:39:42;;;;;;;6.13;5.53;;;18.20;99.90;;;;;;5056096;28;20477;-60
2021/07/31 00:42:13;;;;;;;7.27;6.03;;;18.10;99.90;;;;;;5071263;28;20454;-60
2021/07/31 00:44:40;;;;;;;8.47;5.13;;;18.20;99.90;;;;;;5055382;28;20487;-61
2021/07/31 00:47:11;;;;;;;6.90;4.60;;;18.30;99.90;;;;;;5072187;28;20894;-60
2021/07/31 00:49:38;;;;;;;6.70;5.40;;;18.20;99.90;;;;;;5072195;28;20957;-61
2021/07/31 00:52:07;;;;;;;8.23;5.37;;;18.30;99.90;;;;;;5071923;28;20450;-61
2021/07/31 00:54:37;;;;;;;6.13;5.30;;;18.40;99.90;;;;;;5065598;28;20450;-60
2021/07/31 00:57:04;;;;;;;8.20;5.30;;;18.40;99.90;;;;;;5070721;28;20466;-60
2021/07/31 00:59:31;;;;;;;6.30;5.50;;;18.40;99.90;;;;;;5072381;28;20505;-60
2021/07/31 01:01:58;;;;;;;6.47;5.43;;;18.40;99.90;;;;;;5071221;28;20455;-60
2021/07/31 01:04:25;;;;;;;8.07;6.17;;;18.30;99.90;;;;;;5072010;28;20501;-61
2021/07/31 01:06:52;;;;;;;7.27;5.70;;;18.20;99.90;;;;;;5071253;28;20520;-60
2021/07/31 01:09:19;;;;;;;7.80;5.40;;;18.30;99.90;;;;;;5072203;28;20508;-61
2021/07/31 01:11:47;;;;;;;7.57;5.30;;;18.40;99.90;;;;;;5071835;28;20531;-60
2021/07/31 01:14:14;;;;;;;6.67;5.83;;;18.30;99.90;;;;;;5071871;28;20447;-60
2021/07/31 01:16:41;;;;;;;8.67;5.17;;;18.30;99.90;;;;;;5070651;28;20979;-61
2021/07/31 01:19:08;;;;;;;6.10;5.50;;;18.20;99.90;;;;;;5070769;28;20496;-60
2021/07/31 01:21:39;;;;;;;8.10;5.73;;;18.20;99.90;;;;;;5071739;28;20446;-60
2021/07/31 01:24:07;;;;;;;7.30;6.13;;;18.20;99.90;;;;;;5051804;28;20536;-60
2021/07/31 01:26:39;;;;;;;9.40;6.70;;;18.20;99.90;;;;;;5069506;28;20479;-60
2021/07/31 01:29:07;;;;;;;7.07;6.37;;;18.20;99.90;;;;;;5066256;28;20540;-60
2021/07/31 01:31:35;;;;;;;7.23;5.93;;;18.20;99.90;;;;;;5070921;28;20442;-60
2021/07/31 01:34:02;;;;;;;8.73;6.87;;;18.20;99.90;;;;;;5071640;28;20453;-60
2021/07/31 01:36:29;;;;;;;7.47;5.93;;;18.20;99.90;;;;;;5070772;28;20896;-60
2021/07/31 01:38:57;;;;;;;8.97;6.63;;;18.30;99.90;;;;;;5070878;28;20446;-60
2021/07/31 01:41:25;;;;;;;8.53;6.43;;;18.30;99.90;;;;;;5071553;28;20454;-60
2021/07/31 01:43:52;;;;;;;8.43;6.50;;;18.20;99.90;;;;;;5071604;28;20856;-61
2021/07/31 01:46:19;;;;;;;7.00;6.00;;;18.30;99.90;;;;;;5070125;28;20524;-60
2021/07/31 01:48:46;;;;;;;8.10;6.30;;;18.20;99.90;;;;;;5071651;28;20496;-60
2021/07/31 01:51:14;;;;;;;8.13;6.43;;;18.20;99.90;;;;;;5070829;28;20450;-60
2021/07/31 01:53:41;;;;;;;7.57;6.13;;;18.20;99.90;;;;;;5070956;28;20451;-60
2021/07/31 01:56:09;;;;;;;8.87;6.97;;;18.20;99.90;;;;;;5070557;28;20470;-61
2021/07/31 01:58:36;;;;;;;7.43;5.87;;;18.20;99.90;;;;;;5071035;28;20508;-61
2021/07/31 02:01:03;;;;;;;8.03;6.17;;;18.30;99.90;;;;;;5070725;28;20455;-61
2021/07/31 02:03:31;;;;;;;7.90;6.60;;;18.30;99.90;;;;;;5070910;28;20478;-60
2021/07/31 02:05:58;;;;;;;7.27;6.27;;;18.30;99.90;;;;;;5070630;28;21179;-60
2021/07/31 02:08:25;;;;;;;10.13;6.80;;;18.30;99.90;;;;;;5071370;28;20447;-61
2021/07/31 02:10:52;;;;;;;12.63;6.60;;;18.40;99.90;;;;;;5070558;28;20439;-60
2021/07/31 02:13:20;;;;;;;10.33;6.70;;;18.40;99.90;;;;;;5071352;28;20458;-60
2021/07/31 02:15:47;;;;;;;9.57;6.77;;;18.40;99.90;;;;;;5070421;28;20462;-60
2021/07/31 02:18:14;;;;;;;6.53;5.90;;;18.40;99.90;;;;;;5070979;28;20512;-60
2021/07/31 02:20:42;;;;;;;7.57;6.73;;;18.30;99.90;;;;;;5071100;28;20458;-60
2021/07/31 02:23:09;;;;;;;6.87;5.70;;;18.40;99.90;;;;;;5071299;28;20488;-60
2021/07/31 02:25:36;;;;;;;9.50;7.27;;;18.40;99.90;;;;;;5069728;28;20500;-60
2021/07/31 02:28:04;;;;;;;7.67;6.87;;;18.30;99.90;;;;;;5070834;28;20438;-60
2021/07/31 02:30:32;;;;;;;9.43;7.50;;;18.30;99.90;;;;;;5104707;22;20493;-53
2021/07/31 02:32:59;;;;;;;9.33;6.97;;;18.10;99.90;;;;;;5086911;28;20504;-53
2021/07/31 02:35:33;;;;;;;9.73;7.30;;;18.20;99.90;;;;;;5078157;28;20852;-53
2021/07/31 02:38:00;;;;;;;10.83;7.20;;;18.20;99.90;;;;;;5070879;28;20450;-53
2021/07/31 02:40:27;;;;;;;9.67;7.17;;;18.10;99.90;;;;;;5071781;28;20528;-54
2021/07/31 02:42:54;;;;;;;12.60;7.40;;;18.20;99.90;;;;;;5074257;28;20797;-53
2021/07/31 02:45:21;;;;;;;11.53;7.40;;;18.10;99.90;;;;;;5074177;28;20487;-54
2021/07/31 02:47:50;;;;;;;9.50;8.13;;;18.00;99.90;;;;;;5077219;28;20449;-53
2021/07/31 02:50:17;;;;;;;11.30;9.00;;;18.10;99.90;;;;;;5083959;28;20543;-55
2021/07/31 02:52:44;;;;;;;10.57;8.93;;;18.10;99.90;;;;;;5074368;28;20451;-54
2021/07/31 02:55:11;;;;;;;12.53;8.70;;;18.10;99.90;;;;;;5088048;28;20487;-53
2021/07/31 02:57:38;;;;;;;12.60;9.07;;;18.10;99.90;;;;;;5089428;28;20454;-53
2021/07/31 03:00:06;;;;;;;9.80;8.10;;;18.10;99.90;;;;;;5075322;28;20468;-52
2021/07/31 03:02:33;;;;;;;10.43;8.30;;;18.10;99.90;;;;;;5075277;28;20457;-55
2021/07/31 03:05:02;;;;;;;9.40;7.83;;;18.10;99.90;;;;;;5073543;28;20527;-54
2021/07/31 03:07:29;;;;;;;12.03;8.80;;;18.20;99.90;;;;;;5061134;28;20508;-52
2021/07/31 03:09:56;;;;;;;12.37;8.57;;;18.30;99.90;;;;;;5075293;28;20485;-54
2021/07/31 03:12:23;;;;;;;12.47;9.20;;;18.30;99.90;;;;;;5056036;28;20497;-54
2021/07/31 03:14:50;;;;;;;10.53;7.90;;;18.20;99.90;;;;;;5071525;28;20447;-53
2021/07/31 03:17:17;;;;;;;14.53;9.37;;;18.20;99.90;;;;;;5054594;28;20452;-53
2021/07/31 03:19:45;;;;;;;11.13;9.00;;;18.20;99.90;;;;;;5054411;28;21023;-53
2021/07/31 03:22:13;;;;;;;12.00;8.80;;;18.20;99.90;;;;;;5059716;28;20442;-54
2021/07/31 03:24:40;;;;;;;11.27;8.97;;;18.20;99.90;;;;;;5072803;28;20474;-54
2021/07/31 03:27:07;;;;;;;15.07;9.50;;;18.20;99.90;;;;;;5062549;28;20878;-53
2021/07/31 03:29:35;;;;;;;13.20;9.27;;;18.20;99.90;;;;;;5057674;28;20475;-54
2021/07/31 03:32:02;;;;;;;12.33;8.40;;;18.30;99.90;;;;;;5072859;28;20504;-53
2021/07/31 03:34:30;;;;;;;14.20;9.67;;;18.30;99.90;;;;;;5073217;28;20465;-53
2021/07/31 03:36:57;;;;;;;12.07;9.63;;;18.40;99.90;;;;;;5072665;28;20501;-54
2021/07/31 03:39:26;;;;;;;12.57;9.40;;;18.40;99.90;;;;;;5072186;28;21147;-53
2021/07/31 03:41:55;;;;;;;12.10;9.30;;;18.40;99.90;;;;;;5073339;28;20439;-52
2021/07/31 03:44:22;;;;;;;11.13;8.00;;;18.40;99.90;;;;;;5073398;28;20478;-53
2021/07/31 03:46:50;;;;;;;11.10;9.00;;;18.30;99.90;;;;;;5069434;28;20492;-53
2021/07/31 03:49:17;;;;;;;12.63;8.30;;;18.30;99.90;;;;;;5073325;28;20494;-55
2021/07/31 03:51:44;;;;;;;12.80;7.70;;;18.20;99.90;;;;;;5072213;28;20458;-53
2021/07/31 03:54:11;;;;;;;12.33;9.60;;;18.30;99.90;;;;;;5072447;28;21002;-54
2021/07/31 03:56:39;;;;;;;14.10;9.13;;;18.30;99.90;;;;;;5073392;28;20564;-53
2021/07/31 03:59:06;;;;;;;11.43;8.77;;;18.40;99.90;;;;;;5073165;28;20462;-54
2021/07/31 04:01:33;;;;;;;10.50;8.53;;;18.40;99.90;;;;;;5072120;28;20504;-55
2021/07/31 04:04:00;;;;;;;9.77;8.13;;;18.40;99.90;;;;;;5059755;28;20443;-53
2021/07/31 04:06:27;;;;;;;9.83;7.00;;;18.40;99.90;;;;;;5072562;28;20531;-52
2021/07/31 04:08:54;;;;;;;9.63;7.27;;;18.40;99.90;;;;;;5067254;28;20468;-54
2021/07/31 04:11:23;;;;;;;9.53;8.10;;;18.40;99.90;;;;;;5066335;28;20439;-53
2021/07/31 04:13:54;;;;;;;7.63;6.60;;;18.30;99.90;;;;;;5072800;28;20455;-54
2021/07/31 04:16:21;;;;;;;9.67;8.03;;;18.30;99.90;;;;;;5069381;28;20462;-53
2021/07/31 04:18:47;;;;;;;11.40;7.90;;;18.20;99.90;;;;;;5072602;28;21018;-54
2021/07/31 04:21:14;;;;;;;9.13;7.47;;;18.30;99.90;;;;;;5072301;28;20475;-54
2021/07/31 04:23:41;;;;;;;10.00;7.70;;;18.40;99.90;;;;;;5061240;28;20498;-55
2021/07/31 04:26:13;;;;;;;8.60;7.30;;;18.30;99.90;;;;;;5072070;28;20479;-54
2021/07/31 04:28:40;;;;;;;9.50;6.90;;;18.30;99.90;;;;;;5071653;28;20451;-54
2021/07/31 04:31:10;;;;;;;9.13;6.90;;;18.30;99.90;;;;;;5072005;28;20523;-53
2021/07/31 04:33:37;;;;;;;9.60;7.43;;;18.40;99.90;;;;;;5071613;28;20443;-53
2021/07/31 04:36:05;;;;;;;8.83;6.90;;;18.40;99.90;;;;;;5072042;28;20439;-53
2021/07/31 04:38:32;;;;;;;8.63;7.20;;;18.30;99.90;;;;;;5068173;28;20500;-55
2021/07/31 04:41:00;;;;;;;7.47;6.07;;;18.30;99.90;;;;;;5065967;28;20458;-52
2021/07/31 04:43:26;;;;;;;8.07;5.83;;;18.30;99.90;;;;;;5074566;28;20500;-53
2021/07/31 04:45:54;;;;;;;7.93;6.60;;;18.30;99.90;;;;;;5071835;28;20524;-53
2021/07/31 04:48:22;;;;;;;6.80;5.20;;;18.30;99.90;;;;;;5068006;28;20479;-54
2021/07/31 04:50:56;;;;;;;7.37;6.47;;;18.40;99.90;;;;;;5071919;28;20929;-53
2021/07/31 04:53:24;;;;;;;8.70;6.57;;;18.30;99.90;;;;;;5072041;28;20479;-53
2021/07/31 04:55:51;;;;;;;8.13;6.23;;;18.30;99.90;;;;;;5063069;28;20440;-54
2021/07/31 04:58:18;;;;;;;8.60;5.70;;;18.30;99.90;;;;;;5068140;28;20443;-53
2021/07/31 05:00:46;;;;;;;12.20;6.43;;;18.40;99.90;;;;;;5062092;28;20524;-54
2021/07/31 05:03:13;;;;;;;6.40;5.67;;;18.40;99.90;;;;;;5051921;28;20455;-52
2021/07/31 05:05:41;;;;;;;7.90;6.00;;;18.50;99.90;;;;;;5059332;28;20481;-52
2021/07/31 05:08:08;;;;;;;7.50;6.13;;;18.50;99.90;;;;;;5067632;28;20448;-53
2021/07/31 05:10:39;;;;;;;14.33;5.70;;;18.60;99.90;;;;;;5071031;28;20471;-53
2021/07/31 05:13:06;;;;;;;6.27;5.23;;;18.60;99.90;;;;;;5052690;28;20509;-53
2021/07/31 05:15:36;;;;;;;6.87;5.97;;;18.60;99.90;;;;;;5056969;28;20443;-53
2021/07/31 05:18:03;;;;;;;8.43;6.50;;;18.60;99.90;;;;;;5066370;28;20453;-53
2021/07/31 05:20:30;;;;;;;9.97;7.30;;;18.50;99.90;;;;;;5070107;28;20466;-53
2021/07/31 05:22:59;;;;;;;8.60;6.80;;;18.50;99.90;;;;;;5069094;28;20521;-53
2021/07/31 05:25:26;;;;;;;9.23;6.77;;;18.50;99.90;;;;;;5071109;28;20474;-53
2021/07/31 05:27:54;;;;;;;9.10;6.73;;;18.50;99.90;;;;;;5073824;28;20949;-52
2021/07/31 05:30:21;;;;;;;7.90;6.70;;;18.60;99.90;;;;;;5071629;28;20475;-53
2021/07/31 05:32:48;;;;;;;7.63;5.80;;;18.70;99.90;;;;;;5072131;28;20866;-53
2021/07/31 05:35:15;;;;;;;7.97;6.60;;;18.60;99.90;;;;;;5078083;28;20504;-54
2021/07/31 05:37:42;;;;;;;11.20;6.83;;;18.70;99.90;;;;;;5072293;28;20499;-54
2021/07/31 05:40:11;;;;;;;10.10;7.30;;;18.60;99.90;;;;;;5071704;28;20466;-53
2021/07/31 05:42:38;;;;;;;12.57;7.60;;;18.70;99.90;;;;;;5058978;28;20883;-53
2021/07/31 05:45:07;;;;;;;11.20;7.20;;;18.70;99.90;;;;;;5070545;28;20478;-54
2021/07/31 05:47:34;;;;;;;9.23;7.10;;;18.70;99.90;;;;;;5069941;28;20443;-55
2021/07/31 05:50:05;;;;;;;7.80;6.87;;;18.70;99.90;;;;;;5067616;28;20470;-52
2021/07/31 05:52:33;;;;;;;7.50;6.23;;;18.70;99.90;;;;;;5068996;28;20948;-56
2021/07/31 05:55:00;;;;;;;11.93;6.63;;;18.80;99.90;;;;;;5070516;28;21013;-55
2021/07/31 05:57:29;;;;;;;11.33;7.50;;;18.80;99.90;;;;;;5070700;28;20439;-54
2021/07/31 05:59:56;;;;;;;8.53;7.27;;;18.70;99.90;;;;;;5070971;28;20862;-55
2021/07/31 06:02:23;;;;;;;7.80;6.90;;;18.70;99.90;;;;;;5069981;28;20443;-54
2021/07/31 06:04:50;;;;;;;7.50;6.03;;;18.90;99.90;;;;;;5069666;28;20470;-53
2021/07/31 06:07:17;;;;;;;7.77;6.13;;;18.90;99.90;;;;;;5069732;28;20451;-54
2021/07/31 06:09:50;;;;;;;9.27;7.33;;;18.90;99.90;;;;;;5071169;28;20455;-56
2021/07/31 06:12:17;;;;;;;8.20;7.03;;;19.00;99.90;;;;;;5070469;28;20500;-54
2021/07/31 06:14:46;;;;;;;8.37;6.97;;;19.00;99.90;;;;;;5067195;28;20443;-54
2021/07/31 06:17:13;;;;;;;7.23;6.57;;;19.00;99.90;;;;;;5075136;28;20467;-53
2021/07/31 06:19:41;;;;;;;6.90;6.20;;;19.40;99.90;;;;;;5069388;28;20471;-54
2021/07/31 06:22:11;;;;;;;8.90;6.60;;;19.30;99.90;;;;;;5074634;28;20520;-55
2021/07/31 06:24:39;;;;;;;7.20;6.27;;;19.50;99.90;;;;;;5067208;28;20818;-55
2021/07/31 06:27:06;;;;;;;10.00;6.40;;;19.20;99.90;;;;;;5072554;28;20511;-54
2021/07/31 06:29:33;;;;;;;8.20;6.00;;;19.10;99.90;;;;;;5075570;28;20478;-53
2021/07/31 06:32:05;;;;;;;8.80;6.47;;;19.10;99.90;;;;;;5055267;28;20443;-53
2021/07/31 06:34:32;;;;;;;10.20;6.60;;;19.10;99.90;;;;;;5071552;28;20524;-55
2021/07/31 06:36:59;;;;;;;6.97;6.17;;;19.10;99.90;;;;;;5073223;28;20505;-54
2021/07/31 06:39:27;;;;;;;7.17;5.60;;;19.20;99.90;;;;;;5074440;28;20466;-53
2021/07/31 06:41:54;;;;;;;13.07;6.80;;;19.20;99.90;;;;;;5076508;28;20451;-53
2021/07/31 06:44:21;;;;;;;8.07;6.33;;;19.20;99.90;;;;;;5074744;28;20880;-55
2021/07/31 06:46:48;;;;;;;6.30;5.40;;;19.20;99.90;;;;;;5069410;28;20531;-54
2021/07/31 06:49:16;;;;;;;11.00;6.30;;;19.20;99.90;;;;;;5073123;28;20497;-53
2021/07/31 06:51:43;;;;;;;7.47;6.63;;;19.20;99.90;;;;;;5071267;28;20443;-54
2021/07/31 06:54:10;;;;;;;7.23;6.27;;;19.20;99.90;;;;;;5065622;28;20501;-53
2021/07/31 06:56:37;;;;;;;5.47;4.97;;;19.20;99.90;;;;;;5070200;28;20447;-55
2021/07/31 06:59:05;;;;;;;6.27;5.67;;;19.20;99.90;;;;;;5063932;28;20476;-53
2021/07/31 07:01:32;;;;;;;6.77;5.43;;;19.20;99.90;;;;;;5074218;28;20487;-55
2021/07/31 07:03:59;;;;;;;6.00;5.40;;;19.20;99.90;;;;;;5074445;28;21028;-55
2021/07/31 07:06:27;;;;;;;6.87;6.10;;;19.20;99.90;;;;;;5075059;28;20478;-53
2021/07/31 07:08:55;;;;;;;5.83;5.00;;;19.30;99.90;;;;;;5073598;28;20471;-54
2021/07/31 07:11:22;;;;;;;6.77;6.00;;;19.30;99.90;;;;;;5072703;28;20450;-54
2021/07/31 07:13:49;;;;;;;8.00;6.63;;;19.40;99.90;;;;;;5074043;28;21043;-53
2021/07/31 07:16:16;;;;;;;7.47;6.37;;;19.40;99.90;;;;;;5078384;28;20867;-53
2021/07/31 07:18:43;;;;;;;8.23;6.90;;;19.40;99.90;;;;;;5078229;28;20883;-55
2021/07/31 07:21:11;;;;;;;9.03;7.47;;;19.40;99.90;;;;;;5071774;28;20451;-53
2021/07/31 07:23:40;;;;;;;9.20;7.10;;;19.40;99.90;;;;;;5078372;28;20462;-54
2021/07/31 07:26:10;;;;;;;8.43;7.00;;;19.50;99.90;;;;;;5072219;28;20497;-52
2021/07/31 07:28:38;;;;;;;11.30;6.43;;;19.60;99.90;;;;;;5076066;28;20443;-54
2021/07/31 07:31:06;;;;;;;8.07;6.50;;;19.70;99.90;;;;;;5076318;28;20473;-54
2021/07/31 07:33:33;;;;;;;8.70;7.80;;;19.90;99.90;;;;;;5072466;28;20508;-53
2021/07/31 07:36:01;;;;;;;10.77;7.67;;;19.90;99.90;;;;;;5077322;28;20447;-52
2021/07/31 07:38:28;;;;;;;8.20;7.00;;;20.00;99.90;;;;;;5070089;28;20957;-52
2021/07/31 07:40:56;;;;;;;8.13;6.60;;;20.10;99.90;;;;;;5073911;28;20516;-53
2021/07/31 07:43:23;;;;;;;7.10;6.40;;;20.10;99.90;;;;;;5075801;28;20956;-52
2021/07/31 07:45:50;;;;;;;9.27;6.97;;;20.10;99.90;;;;;;5072440;28;20483;-52
2021/07/31 07:48:17;;;;;;;6.10;5.50;;;20.20;99.90;;;;;;5072299;28;20447;-53
2021/07/31 07:50:44;;;;;;;9.20;7.47;;;20.20;99.90;;;;;;5072290;28;20463;-52
2021/07/31 07:53:11;;;;;;;7.93;7.03;;;20.30;99.90;;;;;;5071954;28;20439;-53
2021/07/31 07:55:38;;;;;;;8.00;6.60;;;20.40;99.90;;;;;;5068368;28;20821;-53
2021/07/31 07:58:10;;;;;;;7.80;6.70;;;20.50;99.90;;;;;;5072601;28;20447;-53
2021/07/31 08:00:38;;;;;;;7.10;5.40;;;20.80;99.90;;;;;;5072158;28;20458;-52
2021/07/31 08:03:07;;;;;;;8.47;6.77;;;20.70;99.90;;;;;;5062656;28;20893;-53
2021/07/31 08:05:37;;;;;;;8.10;5.70;;;20.80;99.90;;;;;;5071167;28;20478;-52
2021/07/31 08:08:04;;;;;;;8.27;6.80;;;20.70;99.90;;;;;;5069084;28;20443;-53
2021/07/31 08:10:31;;;;;;;9.20;6.47;;;20.80;99.90;;;;;;5071894;28;20469;-53
2021/07/31 08:12:58;;;;;;;7.73;6.60;;;20.60;99.90;;;;;;5071247;28;20447;-52
2021/07/31 08:15:27;;;;;;;8.87;7.20;;;20.40;99.90;;;;;;5072003;28;20489;-53
2021/07/31 08:17:54;;;;;;;6.47;5.87;;;20.60;99.90;;;;;;5068364;28;20447;-52
2021/07/31 08:20:21;;;;;;;7.67;6.63;;;20.70;99.90;;;;;;5070990;28;20532;-52
2021/07/31 08:22:48;;;;;;;7.67;6.10;;;20.70;99.90;;;;;;5071747;28;20443;-53
2021/07/31 08:25:15;;;;;;;7.60;6.17;;;20.80;99.90;;;;;;5071965;28;20443;-52
2021/07/31 08:27:43;;;;;;;6.60;5.20;;;21.10;99.90;;;;;;5072072;28;20484;-53
2021/07/31 08:30:12;;;;;;;4.70;3.77;;;21.30;99.90;;;;;;5071585;28;20850;-53
2021/07/31 08:32:44;;;;;;;4.33;3.93;;;21.50;99.90;;;;;;5071431;28;20435;-52
2021/07/31 08:35:11;;;;;;;4.43;4.03;;;21.70;99.90;;;;;;5071413;28;20508;-53
2021/07/31 08:37:39;;;;;;;6.20;4.60;;;21.70;99.90;;;;;;5070396;28;20875;-52
2021/07/31 08:40:11;;;;;;;4.27;3.87;;;21.90;99.90;;;;;;5068024;28;20459;-53
2021/07/31 08:42:39;;;;;;;4.93;3.60;;;22.10;99.90;;;;;;5071518;28;20508;-53
2021/07/31 08:45:09;;;;;;;5.80;4.07;;;22.10;99.90;;;;;;5071334;28;20454;-53
2021/07/31 08:47:38;;;;;;;4.57;3.53;;;22.10;99.90;;;;;;5101234;22;20493;-61
2021/07/31 08:50:09;;;;;;;3.80;3.50;;;22.10;99.90;;;;;;5088782;28;20504;-61
2021/07/31 08:52:36;;;;;;;4.23;3.67;;;22.10;99.90;;;;;;5090539;28;20458;-61
2021/07/31 08:55:04;;;;;;;3.80;3.47;;;22.20;99.90;;;;;;5091757;28;20564;-60
2021/07/31 08:57:31;;;;;;;6.00;4.03;;;22.30;99.90;;;;;;5092134;28;20454;-60
2021/07/31 08:59:58;;;;;;;4.60;4.20;;;22.50;99.90;;;;;;5092332;28;20494;-61
2021/07/31 09:02:25;;;;;;;5.47;3.53;;;22.60;99.90;;;;;;5091176;28;20434;-61
2021/07/31 09:04:52;;;;;;;5.60;3.90;;;22.70;99.90;;;;;;5084354;28;20882;-61
2021/07/31 09:07:20;;;;;;;5.37;3.20;;;22.60;99.90;;;;;;5072305;28;20996;-60
2021/07/31 09:09:47;;;;;;;4.53;3.27;;;22.80;99.90;;;;;;5074198;28;20447;-61
2021/07/31 09:12:15;;;;;;;3.73;3.33;;;22.90;99.90;;;;;;5090585;28;20997;-61
2021/07/31 09:14:47;;;;;;;4.00;3.37;;;22.90;99.90;;;;;;5091873;28;20456;-61
2021/07/31 09:17:24;;;;;;;3.50;3.20;;;23.30;99.90;;;;;;5092428;28;20466;-61
2021/07/31 09:19:52;;;;;;;3.67;3.37;;;23.30;99.90;;;;;;5091968;28;20485;-60
2021/07/31 09:22:20;;;;;;;5.27;2.80;;;23.30;99.90;;;;;;5091422;28;20446;-61
2021/07/31 09:25:08;;;;;;;3.33;3.03;;;23.50;99.90;;;;;;5087577;28;21008;-61
2021/07/31 09:27:35;;;;;;;4.30;3.13;;;23.40;99.90;;;;;;5089212;28;20479;-61
2021/07/31 09:30:03;;;;;;;4.20;3.30;;;22.80;99.90;;;;;;5091944;28;20454;-60
2021/07/31 09:32:38;;;;;;;4.33;3.33;;;22.90;99.90;;;;;;5091779;28;20507;-60
2021/07/31 09:35:20;;;;;;;4.00;3.30;;;22.90;99.90;;;;;;5092325;28;20449;-60
2021/07/31 09:37:49;;;;;;;3.30;3.00;;;22.30;99.90;;;;;;5091976;28;20465;-60
2021/07/31 09:40:28;;;;;;;5.10;3.07;;;22.30;99.90;;;;;;5091998;28;20446;-60
2021/07/31 09:42:55;;;;;;;3.53;3.23;;;22.10;99.90;;;;;;5091690;28;20824;-60
2021/07/31 09:45:33;;;;;;;3.80;3.40;;;22.10;99.90;;;;;;5091030;28;20495;-60
2021/07/31 09:48:01;;;;;;;6.70;3.10;;;22.30;99.90;;;;;;5087137;28;20482;-60
2021/07/31 09:50:39;;;;;;;4.60;3.67;;;22.10;99.90;;;;;;5081050;28;20825;-60
2021/07/31 09:53:12;;;;;;;3.70;3.40;;;22.40;99.90;;;;;;5085061;28;20878;-60
2021/07/31 09:55:48;;;;;;;4.43;3.50;;;22.50;99.90;;;;;;5090540;28;20952;-61
2021/07/31 09:58:16;;;;;;;4.30;3.10;;;22.90;99.90;;;;;;5075117;28;20479;-61
2021/07/31 10:00:45;;;;;;;3.83;3.10;;;23.10;99.90;;;;;;5074850;28;20916;-61
2021/07/31 10:03:13;;;;;;;3.27;3.03;;;23.40;99.90;;;;;;5091414;28;20452;-60
2021/07/31 10:05:41;;;;;;;5.87;3.90;;;23.70;99.90;;;;;;5084747;28;20538;-60
2021/07/31 10:08:10;;;;;;;7.00;3.37;;;23.20;99.90;;;;;;5086894;28;20544;-60
2021/07/31 10:10:38;;;;;;;3.40;2.93;;;23.20;99.90;;;;;;5087327;28;20466;-60
2021/07/31 10:13:05;;;;;;;3.30;3.00;;;22.80;99.90;;;;;;5079361;28;20562;-61
2021/07/31 10:15:33;;;;;;;3.37;3.07;;;22.80;99.90;;;;;;5081539;28;20473;-60
2021/07/31 10:18:00;;;;;;;3.80;3.33;;;22.80;99.90;;;;;;5086155;28;20485;-61
2021/07/31 10:20:28;;;;;;;5.10;3.10;;;22.60;99.90;;;;;;5079362;28;21001;-61
2021/07/31 10:22:56;;;;;;;5.77;3.37;;;22.60;99.90;;;;;;5076940;28;20462;-61
2021/07/31 10:25:25;;;;;;;3.50;3.20;;;22.60;99.90;;;;;;5085315;28;20469;-60
2021/07/31 10:27:54;;;;;;;3.40;2.93;;;22.50;99.90;;;;;;5080999;28;20485;-60
2021/07/31 10:30:33;;;;;;;3.73;3.40;;;22.40;99.90;;;;;;5083590;28;20489;-59
2021/07/31 10:33:00;;;;;;;3.90;3.60;;;22.10;99.90;;;;;;5083443;28;20472;-61
2021/07/31 10:35:37;;;;;;;3.97;3.43;;;22.20;99.90;;;;;;5083791;28;20454;-59
2021/07/31 10:38:08;;;;;;;4.00;3.37;;;22.00;99.90;;;;;;5081950;28;20542;-59
2021/07/31 10:40:54;;;;;;;3.77;3.47;;;21.80;99.90;;;;;;5085127;28;20468;-60
2021/07/31 10:43:23;;;;;;;5.00;3.77;;;21.80;99.90;;;;;;5084257;28;20458;-60
2021/07/31 10:45:51;;;;;;;3.80;3.27;;;22.20;99.90;;;;;;5083340;28;20704;-60
2021/07/31 10:48:26;;;;;;;3.40;3.10;;;22.30;99.90;;;;;;5083095;28;20535;-60
2021/07/31 10:50:54;;;;;;;3.23;2.93;;;22.40;99.90;;;;;;5082022;28;20533;-60
2021/07/31 10:53:21;;;;;;;4.50;3.60;;;22.30;99.90;;;;;;5081601;28;20482;-60
2021/07/31 10:56:05;;;;;;;3.20;2.90;;;22.00;99.90;;;;;;5081525;28;20466;-60
2021/07/31 10:58:33;;;;;;;3.53;3.23;;;21.90;99.90;;;;;;5081114;28;20552;-60
2021/07/31 11:01:21;;;;;;;3.83;3.47;;;21.90;99.90;;;;;;5084057;28;20469;-60
2021/07/31 11:03:49;;;;;;;4.07;3.10;;;22.20;99.90;;;;;;5091057;28;20877;-61
2021/07/31 11:06:16;;;;;;;5.20;3.60;;;22.30;99.90;;;;;;5091980;28;20495;-60
2021/07/31 11:09:14;;;;;;;4.20;3.80;;;22.50;99.90;;;;;;5090922;28;20473;-61
2021/07/31 11:11:43;;;;;;;3.20;3.00;;;22.30;99.90;;;;;;5094696;28;20445;-61
2021/07/31 11:14:11;;;;;;;3.60;3.30;;;22.30;99.90;;;;;;5093623;28;20515;-61
2021/07/31 11:16:38;;;;;;;2.87;2.67;;;22.50;99.90;;;;;;5079020;28;20500;-60
2021/07/31 11:19:05;;;;;;;7.03;3.50;;;22.50;99.90;;;;;;5094496;28;20997;-61
2021/07/31 11:21:35;;;;;;;6.33;2.97;;;22.40;99.90;;;;;;5078854;28;20447;-61
2021/07/31 11:24:04;;;;;;;3.27;2.97;;;22.60;99.90;;;;;;5074313;28;20492;-60
2021/07/31 11:26:44;;;;;;;3.23;2.73;;;22.70;99.90;;;;;;5087742;28;21029;-61
2021/07/31 11:29:14;;;;;;;2.67;2.47;;;22.80;99.90;;;;;;5094408;28;20453;-61
2021/07/31 11:31:44;;;;;;;3.47;3.20;;;23.10;99.90;;;;;;5094309;28;20442;-60
2021/07/31 11:34:12;;;;;;;3.43;3.13;;;23.00;99.90;;;;;;5094349;28;20452;-61
2021/07/31 11:36:41;;;;;;;4.43;2.97;;;22.90;99.90;;;;;;5094306;28;20830;-61
2021/07/31 11:39:09;;;;;;;3.27;3.00;;;22.90;99.90;;;;;;5094197;28;20446;-61
2021/07/31 11:41:41;;;;;;;3.63;2.90;;;22.80;99.90;;;;;;5094041;28;20495;-61
2021/07/31 11:44:10;;;;;;;3.83;3.20;;;22.80;99.90;;;;;;5093510;28;20450;-61
2021/07/31 11:46:41;;;;;;;4.30;3.00;;;22.90;99.90;;;;;;5093720;28;20474;-60
2021/07/31 11:49:10;;;;;;;5.37;3.10;;;22.80;99.90;;;;;;5093598;28;20444;-61
2021/07/31 11:51:45;;;;;;;5.17;3.30;;;22.60;99.90;;;;;;5089547;28;20442;-60
2021/07/31 11:54:13;;;;;;;3.60;3.30;;;22.70;99.90;;;;;;5085606;28;20461;-61
2021/07/31 11:56:41;;;;;;;4.20;2.90;;;22.50;99.90;;;;;;5083445;28;20437;-61
2021/07/31 11:59:10;;;;;;;4.80;2.97;;;22.30;99.90;;;;;;5074101;28;20451;-61
2021/07/31 12:01:38;;;;;;;3.73;3.07;;;22.50;99.90;;;;;;5082741;28;21004;-60
2021/07/31 12:04:06;;;;;;;4.47;3.70;;;22.50;99.90;;;;;;5093387;28;20438;-60
2021/07/31 12:06:39;;;;;;;3.50;3.20;;;22.50;99.90;;;;;;5093132;28;21052;-60
2021/07/31 12:09:19;;;;;;;4.33;3.20;;;22.60;99.90;;;;;;5093349;28;20542;-61
2021/07/31 12:11:48;;;;;;;4.37;3.10;;;22.50;99.90;;;;;;5092989;28;20788;-61
2021/07/31 12:14:37;;;;;;;4.30;3.27;;;22.80;99.90;;;;;;5092478;28;21005;-60
2021/07/31 12:17:28;;;;;;;3.97;3.67;;;22.90;99.90;;;;;;5092612;28;20515;-60
2021/07/31 12:19:56;;;;;;;3.43;3.13;;;22.80;99.90;;;;;;5089942;28;20506;-61
2021/07/31 12:22:24;;;;;;;3.70;3.40;;;22.30;99.90;;;;;;5092648;28;20462;-61
2021/07/31 12:25:15;;;;;;;4.20;3.80;;;22.00;99.90;;;;;;5089611;28;20451;-60
2021/07/31 12:28:02;;;;;;;5.40;3.57;;;22.10;99.90;;;;;;5087956;28;20486;-61
2021/07/31 12:30:38;;;;;;;4.63;3.23;;;22.40;99.90;;;;;;5093336;28;20450;-61
2021/07/31 12:33:16;;;;;;;3.00;2.80;;;22.40;99.90;;;;;;5092916;28;20458;-61
2021/07/31 12:35:44;;;;;;;3.40;3.10;;;22.50;99.90;;;;;;5093228;28;20807;-61
2021/07/31 12:38:15;;;;;;;3.53;3.23;;;22.60;99.90;;;;;;5092665;28;20549;-61
2021/07/31 12:40:42;;;;;;;3.53;3.23;;;22.60;99.90;;;;;;5092827;28;20510;-61
2021/07/31 12:43:10;;;;;;;5.07;3.37;;;22.60;99.90;;;;;;5092445;28;20454;-61
2021/07/31 12:45:39;;;;;;;3.43;3.07;;;22.80;99.90;;;;;;5093027;28;20454;-61
2021/07/31 12:48:06;;;;;;;3.63;3.30;;;22.60;99.90;;;;;;5092683;28;20558;-61
2021/07/31 12:50:33;;;;;;;3.93;3.60;;;22.70;99.90;;;;;;5092678;28;20529;-61
2021/07/31 12:53:01;;;;;;;3.87;3.57;;;22.80;99.90;;;;;;5092685;28;20449;-61